sensor_id;sensor_type;location;lat;lon;timestamp;P1;durP1;ratioP1;P2;durP2;ratioP2
11691;SDS011;33659;42.672;23.354;2023-04-06T00:00:00;5.53;;;4.87;;
11691;SDS011;33659;42.672;23.354;2023-04-06T00:02:28;5.60;;;4.33;;
11691;SDS011;33659;42.672;23.354;2023-04-06T00:04:55;6.30;;;5.30;;
11691;SDS011;33659;42.672;23.354;2023-04-06T00:07:21;6.20;;;5.60;;
11691;SDS011;33659;42.672;23.354;2023-04-06T00:09:48;8.30;;;5.50;;
11691;SDS011;33659;42.672;23.354;2023-04-06T00:12:15;6.80;;;5.77;;
11691;SDS011;33659;42.672;23.354;2023-04-06T00:14:42;5.73;;;5.13;;
11691;SDS011;33659;42.672;23.354;2023-04-06T00:17:08;6.90;;;5.23;;
11691;SDS011;33659;42.672;23.354;2023-04-06T00:19:36;7.27;;;5.40;;
11691;SDS011;33659;42.672;23.354;2023-04-06T00:22:03;6.60;;;5.60;;
11691;SDS011;33659;42.672;23.354;2023-04-06T00:24:30;7.40;;;6.33;;
11691;SDS011;33659;42.672;23.354;2023-04-06T00:26:57;7.10;;;5.30;;
11691;SDS011;33659;42.672;23.354;2023-04-06T00:29:23;8.07;;;5.57;;
11691;SDS011;33659;42.672;23.354;2023-04-06T00:31:50;6.20;;;5.57;;
11691;SDS011;33659;42.672;23.354;2023-04-06T00:34:17;7.27;;;5.67;;
11691;SDS011;33659;42.672;23.354;2023-04-06T00:36:45;6.60;;;5.90;;
11691;SDS011;33659;42.672;23.354;2023-04-06T00:39:12;7.13;;;5.60;;
11691;SDS011;33659;42.672;23.354;2023-04-06T00:41:38;6.17;;;5.57;;
11691;SDS011;33659;42.672;23.354;2023-04-06T00:44:10;5.93;;;5.30;;
11691;SDS011;33659;42.672;23.354;2023-04-06T00:46:37;6.60;;;5.20;;
11691;SDS011;33659;42.672;23.354;2023-04-06T00:49:04;6.63;;;5.43;;
11691;SDS011;33659;42.672;23.354;2023-04-06T00:51:31;6.37;;;5.43;;
11691;SDS011;33659;42.672;23.354;2023-04-06T00:53:59;7.63;;;5.50;;
11691;SDS011;33659;42.672;23.354;2023-04-06T00:56:25;6.30;;;5.67;;
11691;SDS011;33659;42.672;23.354;2023-04-06T00:58:52;5.97;;;5.47;;
11691;SDS011;33659;42.672;23.354;2023-04-06T01:01:20;8.07;;;5.83;;
11691;SDS011;33659;42.672;23.354;2023-04-06T01:03:46;7.77;;;5.30;;
11691;SDS011;33659;42.672;23.354;2023-04-06T01:06:15;6.50;;;5.50;;
11691;SDS011;33659;42.672;23.354;2023-04-06T01:08:41;5.27;;;4.77;;
11691;SDS011;33659;42.672;23.354;2023-04-06T01:11:10;7.67;;;5.03;;
11691;SDS011;33659;42.672;23.354;2023-04-06T01:13:36;5.87;;;5.23;;
11691;SDS011;33659;42.672;23.354;2023-04-06T01:16:03;8.53;;;5.00;;
11691;SDS011;33659;42.672;23.354;2023-04-06T01:18:31;5.40;;;4.90;;
11691;SDS011;33659;42.672;23.354;2023-04-06T01:20:58;4.90;;;4.23;;
11691;SDS011;33659;42.672;23.354;2023-04-06T01:23:26;6.17;;;5.00;;
11691;SDS011;33659;42.672;23.354;2023-04-06T01:25:52;5.63;;;4.97;;
11691;SDS011;33659;42.672;23.354;2023-04-06T01:28:19;5.40;;;4.90;;
11691;SDS011;33659;42.672;23.354;2023-04-06T01:30:46;5.87;;;4.80;;
11691;SDS011;33659;42.672;23.354;2023-04-06T01:33:12;5.00;;;4.57;;
11691;SDS011;33659;42.672;23.354;2023-04-06T01:35:39;5.47;;;4.97;;
11691;SDS011;33659;42.672;23.354;2023-04-06T01:38:06;4.83;;;4.33;;
11691;SDS011;33659;42.672;23.354;2023-04-06T01:40:34;5.10;;;4.60;;
11691;SDS011;33659;42.672;23.354;2023-04-06T01:43:01;5.63;;;4.47;;
11691;SDS011;33659;42.672;23.354;2023-04-06T01:45:28;7.23;;;4.97;;
11691;SDS011;33659;42.672;23.354;2023-04-06T01:47:55;5.17;;;4.67;;
11691;SDS011;33659;42.672;23.354;2023-04-06T01:50:21;6.00;;;4.90;;
11691;SDS011;33659;42.672;23.354;2023-04-06T01:52:48;5.77;;;5.17;;
11691;SDS011;33659;42.672;23.354;2023-04-06T01:55:15;5.90;;;5.37;;
11691;SDS011;33659;42.672;23.354;2023-04-06T01:57:43;5.97;;;5.37;;
11691;SDS011;33659;42.672;23.354;2023-04-06T02:00:10;5.87;;;5.30;;
11691;SDS011;33659;42.672;23.354;2023-04-06T02:02:37;4.30;;;3.90;;
11691;SDS011;33659;42.672;23.354;2023-04-06T02:05:05;4.63;;;4.23;;
11691;SDS011;33659;42.672;23.354;2023-04-06T02:07:32;5.50;;;4.70;;
11691;SDS011;33659;42.672;23.354;2023-04-06T02:09:58;6.63;;;5.33;;
11691;SDS011;33659;42.672;23.354;2023-04-06T02:12:25;6.23;;;5.03;;
11691;SDS011;33659;42.672;23.354;2023-04-06T02:14:53;8.47;;;4.83;;
11691;SDS011;33659;42.672;23.354;2023-04-06T02:17:20;5.20;;;4.70;;
11691;SDS011;33659;42.672;23.354;2023-04-06T02:19:47;5.63;;;4.97;;
11691;SDS011;33659;42.672;23.354;2023-04-06T02:22:13;5.20;;;4.70;;
11691;SDS011;33659;42.672;23.354;2023-04-06T02:24:40;6.13;;;4.60;;
11691;SDS011;33659;42.672;23.354;2023-04-06T02:27:07;4.80;;;4.20;;
11691;SDS011;33659;42.672;23.354;2023-04-06T02:29:33;7.87;;;5.47;;
11691;SDS011;33659;42.672;23.354;2023-04-06T02:32:01;6.43;;;5.20;;
11691;SDS011;33659;42.672;23.354;2023-04-06T02:34:28;5.90;;;4.80;;
11691;SDS011;33659;42.672;23.354;2023-04-06T02:36:55;6.90;;;5.33;;
11691;SDS011;33659;42.672;23.354;2023-04-06T02:39:22;7.80;;;5.60;;
11691;SDS011;33659;42.672;23.354;2023-04-06T02:41:48;6.80;;;5.43;;
11691;SDS011;33659;42.672;23.354;2023-04-06T02:44:15;6.23;;;4.87;;
11691;SDS011;33659;42.672;23.354;2023-04-06T02:46:42;6.37;;;5.77;;
11691;SDS011;33659;42.672;23.354;2023-04-06T02:49:10;5.97;;;5.00;;
11691;SDS011;33659;42.672;23.354;2023-04-06T02:51:37;6.73;;;5.20;;
11691;SDS011;33659;42.672;23.354;2023-04-06T02:54:03;6.33;;;5.03;;
11691;SDS011;33659;42.672;23.354;2023-04-06T02:56:30;5.13;;;4.67;;
11691;SDS011;33659;42.672;23.354;2023-04-06T02:58:57;5.60;;;4.60;;
11691;SDS011;33659;42.672;23.354;2023-04-06T03:01:23;6.50;;;5.10;;
11691;SDS011;33659;42.672;23.354;2023-04-06T03:03:50;5.03;;;4.63;;
11691;SDS011;33659;42.672;23.354;2023-04-06T03:06:18;5.83;;;4.60;;
11691;SDS011;33659;42.672;23.354;2023-04-06T03:08:45;8.20;;;5.00;;
11691;SDS011;33659;42.672;23.354;2023-04-06T03:11:12;5.87;;;4.30;;
11691;SDS011;33659;42.672;23.354;2023-04-06T03:13:39;6.10;;;4.70;;
11691;SDS011;33659;42.672;23.354;2023-04-06T03:16:06;4.90;;;3.97;;
11691;SDS011;33659;42.672;23.354;2023-04-06T03:18:33;5.83;;;5.23;;
11691;SDS011;33659;42.672;23.354;2023-04-06T03:20:59;5.63;;;4.60;;
11691;SDS011;33659;42.672;23.354;2023-04-06T03:23:27;6.37;;;4.47;;
11691;SDS011;33659;42.672;23.354;2023-04-06T03:25:54;5.67;;;5.10;;
11691;SDS011;33659;42.672;23.354;2023-04-06T03:28:21;8.80;;;5.33;;
11691;SDS011;33659;42.672;23.354;2023-04-06T03:30:48;5.73;;;5.10;;
11691;SDS011;33659;42.672;23.354;2023-04-06T03:33:15;5.57;;;4.93;;
11691;SDS011;33659;42.672;23.354;2023-04-06T03:35:42;5.90;;;5.27;;
11691;SDS011;33659;42.672;23.354;2023-04-06T03:38:08;6.50;;;5.57;;
11691;SDS011;33659;42.672;23.354;2023-04-06T03:40:37;4.83;;;4.40;;
11691;SDS011;33659;42.672;23.354;2023-04-06T03:43:03;7.30;;;5.50;;
11691;SDS011;33659;42.672;23.354;2023-04-06T03:45:30;5.00;;;4.60;;
11691;SDS011;33659;42.672;23.354;2023-04-06T03:47:57;6.57;;;5.27;;
11691;SDS011;33659;42.672;23.354;2023-04-06T03:50:24;5.63;;;4.67;;
11691;SDS011;33659;42.672;23.354;2023-04-06T03:52:51;5.87;;;4.97;;
11691;SDS011;33659;42.672;23.354;2023-04-06T03:55:17;4.97;;;4.10;;
11691;SDS011;33659;42.672;23.354;2023-04-06T03:57:45;5.27;;;4.43;;
11691;SDS011;33659;42.672;23.354;2023-04-06T04:00:12;5.07;;;4.57;;
11691;SDS011;33659;42.672;23.354;2023-04-06T04:02:40;5.30;;;4.80;;
11691;SDS011;33659;42.672;23.354;2023-04-06T04:05:06;6.50;;;4.80;;
11691;SDS011;33659;42.672;23.354;2023-04-06T04:07:33;5.73;;;4.43;;
11691;SDS011;33659;42.672;23.354;2023-04-06T04:10:00;6.87;;;5.13;;
11691;SDS011;33659;42.672;23.354;2023-04-06T04:12:27;5.57;;;4.50;;
11691;SDS011;33659;42.672;23.354;2023-04-06T04:14:55;7.27;;;6.07;;
11691;SDS011;33659;42.672;23.354;2023-04-06T04:17:22;6.90;;;5.90;;
11691;SDS011;33659;42.672;23.354;2023-04-06T04:19:48;8.40;;;6.40;;
11691;SDS011;33659;42.672;23.354;2023-04-06T04:22:15;11.07;;;6.33;;
11691;SDS011;33659;42.672;23.354;2023-04-06T04:24:42;7.40;;;6.60;;
11691;SDS011;33659;42.672;23.354;2023-04-06T04:27:08;8.43;;;6.13;;
11691;SDS011;33659;42.672;23.354;2023-04-06T04:29:35;8.33;;;6.97;;
11691;SDS011;33659;42.672;23.354;2023-04-06T04:32:03;8.87;;;5.87;;
11691;SDS011;33659;42.672;23.354;2023-04-06T04:34:30;7.20;;;5.30;;
11691;SDS011;33659;42.672;23.354;2023-04-06T04:36:57;7.10;;;6.00;;
11691;SDS011;33659;42.672;23.354;2023-04-06T04:39:24;7.63;;;6.13;;
11691;SDS011;33659;42.672;23.354;2023-04-06T04:41:51;6.67;;;5.30;;
11691;SDS011;33659;42.672;23.354;2023-04-06T04:44:18;6.17;;;5.57;;
11691;SDS011;33659;42.672;23.354;2023-04-06T04:46:45;5.80;;;5.23;;
11691;SDS011;33659;42.672;23.354;2023-04-06T04:49:13;7.00;;;5.40;;
11691;SDS011;33659;42.672;23.354;2023-04-06T04:51:40;6.77;;;5.40;;
11691;SDS011;33659;42.672;23.354;2023-04-06T04:54:06;6.97;;;5.20;;
11691;SDS011;33659;42.672;23.354;2023-04-06T04:56:33;12.03;;;5.03;;
11691;SDS011;33659;42.672;23.354;2023-04-06T04:59:00;6.73;;;5.30;;
11691;SDS011;33659;42.672;23.354;2023-04-06T05:01:26;7.80;;;6.33;;
11691;SDS011;33659;42.672;23.354;2023-04-06T05:03:53;7.80;;;5.70;;
11691;SDS011;33659;42.672;23.354;2023-04-06T05:06:22;6.50;;;4.73;;
11691;SDS011;33659;42.672;23.354;2023-04-06T05:08:48;7.77;;;5.20;;
11691;SDS011;33659;42.672;23.354;2023-04-06T05:11:15;4.73;;;4.30;;
11691;SDS011;33659;42.672;23.354;2023-04-06T05:13:42;5.67;;;5.00;;
11691;SDS011;33659;42.672;23.354;2023-04-06T05:16:08;5.17;;;4.47;;
11691;SDS011;33659;42.672;23.354;2023-04-06T05:18:35;7.53;;;5.50;;
11691;SDS011;33659;42.672;23.354;2023-04-06T05:21:02;7.93;;;5.43;;
11691;SDS011;33659;42.672;23.354;2023-04-06T05:23:30;7.63;;;5.57;;
11691;SDS011;33659;42.672;23.354;2023-04-06T05:25:57;6.50;;;5.40;;
11691;SDS011;33659;42.672;23.354;2023-04-06T05:28:24;8.20;;;5.90;;
11691;SDS011;33659;42.672;23.354;2023-04-06T05:30:51;7.30;;;5.70;;
11691;SDS011;33659;42.672;23.354;2023-04-06T05:33:17;8.93;;;5.87;;
11691;SDS011;33659;42.672;23.354;2023-04-06T05:35:44;11.27;;;6.87;;
11691;SDS011;33659;42.672;23.354;2023-04-06T05:38:11;11.67;;;6.37;;
11691;SDS011;33659;42.672;23.354;2023-04-06T05:40:39;7.97;;;5.83;;
11691;SDS011;33659;42.672;23.354;2023-04-06T05:43:06;9.93;;;6.03;;
11691;SDS011;33659;42.672;23.354;2023-04-06T05:45:33;9.00;;;6.10;;
11691;SDS011;33659;42.672;23.354;2023-04-06T05:48:00;11.60;;;7.53;;
11691;SDS011;33659;42.672;23.354;2023-04-06T05:50:28;8.13;;;6.60;;
11691;SDS011;33659;42.672;23.354;2023-04-06T05:52:54;12.50;;;7.70;;
11691;SDS011;33659;42.672;23.354;2023-04-06T05:55:21;10.83;;;7.07;;
11691;SDS011;33659;42.672;23.354;2023-04-06T05:57:49;8.67;;;6.60;;
11691;SDS011;33659;42.672;23.354;2023-04-06T06:00:16;8.90;;;6.73;;
11691;SDS011;33659;42.672;23.354;2023-04-06T06:02:43;7.73;;;6.63;;
11691;SDS011;33659;42.672;23.354;2023-04-06T06:05:09;11.97;;;7.63;;
11691;SDS011;33659;42.672;23.354;2023-04-06T06:07:36;11.47;;;7.63;;
11691;SDS011;33659;42.672;23.354;2023-04-06T06:10:03;10.10;;;8.07;;
11691;SDS011;33659;42.672;23.354;2023-04-06T06:12:30;11.30;;;7.43;;
11691;SDS011;33659;42.672;23.354;2023-04-06T06:14:58;9.47;;;7.40;;
11691;SDS011;33659;42.672;23.354;2023-04-06T06:17:25;11.37;;;7.33;;
11691;SDS011;33659;42.672;23.354;2023-04-06T06:19:52;10.47;;;7.73;;
11691;SDS011;33659;42.672;23.354;2023-04-06T06:22:19;9.20;;;6.77;;
11691;SDS011;33659;42.672;23.354;2023-04-06T06:24:45;11.70;;;7.37;;
11691;SDS011;33659;42.672;23.354;2023-04-06T06:27:12;11.10;;;7.23;;
11691;SDS011;33659;42.672;23.354;2023-04-06T06:29:39;9.90;;;7.63;;
11691;SDS011;33659;42.672;23.354;2023-04-06T06:32:07;11.93;;;8.00;;
11691;SDS011;33659;42.672;23.354;2023-04-06T06:34:34;11.57;;;7.73;;
11691;SDS011;33659;42.672;23.354;2023-04-06T06:37:01;13.23;;;8.17;;
11691;SDS011;33659;42.672;23.354;2023-04-06T06:39:28;9.37;;;7.17;;
11691;SDS011;33659;42.672;23.354;2023-04-06T06:41:54;8.30;;;6.83;;
11691;SDS011;33659;42.672;23.354;2023-04-06T06:44:21;9.10;;;7.30;;
11691;SDS011;33659;42.672;23.354;2023-04-06T06:46:48;10.07;;;6.83;;
11691;SDS011;33659;42.672;23.354;2023-04-06T06:49:16;9.37;;;7.60;;
11691;SDS011;33659;42.672;23.354;2023-04-06T06:51:43;9.97;;;7.47;;
11691;SDS011;33659;42.672;23.354;2023-04-06T06:54:11;8.10;;;6.90;;
11691;SDS011;33659;42.672;23.354;2023-04-06T06:56:38;12.10;;;7.93;;
11691;SDS011;33659;42.672;23.354;2023-04-06T06:59:05;8.83;;;6.57;;
11691;SDS011;33659;42.672;23.354;2023-04-06T07:01:32;8.83;;;7.00;;
11691;SDS011;33659;42.672;23.354;2023-04-06T07:03:59;10.93;;;7.20;;
11691;SDS011;33659;42.672;23.354;2023-04-06T07:06:27;7.70;;;6.03;;
11691;SDS011;33659;42.672;23.354;2023-04-06T07:08:54;9.57;;;6.30;;
11691;SDS011;33659;42.672;23.354;2023-04-06T07:11:21;8.50;;;5.67;;
11691;SDS011;33659;42.672;23.354;2023-04-06T07:13:47;8.73;;;7.13;;
11691;SDS011;33659;42.672;23.354;2023-04-06T07:16:14;8.80;;;6.17;;
11691;SDS011;33659;42.672;23.354;2023-04-06T07:18:41;9.97;;;7.40;;
11691;SDS011;33659;42.672;23.354;2023-04-06T07:21:08;9.87;;;6.50;;
11691;SDS011;33659;42.672;23.354;2023-04-06T07:23:36;9.83;;;6.03;;
11691;SDS011;33659;42.672;23.354;2023-04-06T07:26:03;11.23;;;7.27;;
11691;SDS011;33659;42.672;23.354;2023-04-06T07:28:30;8.97;;;7.23;;
11691;SDS011;33659;42.672;23.354;2023-04-06T07:30:56;9.63;;;7.20;;
11691;SDS011;33659;42.672;23.354;2023-04-06T07:33:23;10.47;;;7.73;;
11691;SDS011;33659;42.672;23.354;2023-04-06T07:35:52;10.03;;;6.53;;
11691;SDS011;33659;42.672;23.354;2023-04-06T07:38:19;8.47;;;6.90;;
11691;SDS011;33659;42.672;23.354;2023-04-06T07:40:47;10.70;;;7.10;;
11691;SDS011;33659;42.672;23.354;2023-04-06T07:43:14;10.70;;;6.93;;
11691;SDS011;33659;42.672;23.354;2023-04-06T07:45:41;9.80;;;6.40;;
11691;SDS011;33659;42.672;23.354;2023-04-06T07:48:08;7.33;;;6.33;;
11691;SDS011;33659;42.672;23.354;2023-04-06T07:50:35;8.77;;;6.43;;
11691;SDS011;33659;42.672;23.354;2023-04-06T07:53:01;8.83;;;7.07;;
11691;SDS011;33659;42.672;23.354;2023-04-06T07:55:28;8.80;;;6.63;;
11691;SDS011;33659;42.672;23.354;2023-04-06T07:57:56;8.50;;;6.33;;
11691;SDS011;33659;42.672;23.354;2023-04-06T08:00:23;8.93;;;6.80;;
11691;SDS011;33659;42.672;23.354;2023-04-06T08:02:50;11.20;;;7.20;;
11691;SDS011;33659;42.672;23.354;2023-04-06T08:05:17;13.27;;;7.87;;
11691;SDS011;33659;42.672;23.354;2023-04-06T08:07:44;10.93;;;6.77;;
11691;SDS011;33659;42.672;23.354;2023-04-06T08:10:11;9.73;;;6.40;;
11691;SDS011;33659;42.672;23.354;2023-04-06T08:12:37;10.47;;;6.83;;
11691;SDS011;33659;42.672;23.354;2023-04-06T08:15:06;8.43;;;5.90;;
11691;SDS011;33659;42.672;23.354;2023-04-06T08:17:33;7.50;;;6.27;;
11691;SDS011;33659;42.672;23.354;2023-04-06T08:20:00;9.87;;;6.37;;
11691;SDS011;33659;42.672;23.354;2023-04-06T08:22:28;10.93;;;6.67;;
11691;SDS011;33659;42.672;23.354;2023-04-06T08:24:55;7.47;;;5.43;;
11691;SDS011;33659;42.672;23.354;2023-04-06T08:27:21;6.63;;;5.47;;
11691;SDS011;33659;42.672;23.354;2023-04-06T08:29:49;9.53;;;6.23;;
11691;SDS011;33659;42.672;23.354;2023-04-06T08:32:17;8.20;;;6.10;;
11691;SDS011;33659;42.672;23.354;2023-04-06T08:34:44;7.43;;;5.30;;
11691;SDS011;33659;42.672;23.354;2023-04-06T08:37:10;7.73;;;5.93;;
11691;SDS011;33659;42.672;23.354;2023-04-06T08:39:37;10.47;;;7.00;;
11691;SDS011;33659;42.672;23.354;2023-04-06T08:42:04;8.77;;;6.07;;
11691;SDS011;33659;42.672;23.354;2023-04-06T08:44:36;7.37;;;6.37;;
11691;SDS011;33659;42.672;23.354;2023-04-06T08:47:04;8.20;;;5.73;;
11691;SDS011;33659;42.672;23.354;2023-04-06T08:49:32;8.30;;;6.30;;
11691;SDS011;33659;42.672;23.354;2023-04-06T08:52:00;9.77;;;6.50;;
11691;SDS011;33659;42.672;23.354;2023-04-06T08:54:27;7.33;;;5.93;;
11691;SDS011;33659;42.672;23.354;2023-04-06T08:56:54;9.17;;;6.43;;
11691;SDS011;33659;42.672;23.354;2023-04-06T08:59:21;7.13;;;5.80;;
11691;SDS011;33659;42.672;23.354;2023-04-06T09:01:49;6.93;;;5.60;;
11691;SDS011;33659;42.672;23.354;2023-04-06T09:04:18;8.73;;;6.53;;
11691;SDS011;33659;42.672;23.354;2023-04-06T09:06:47;7.30;;;5.53;;
11691;SDS011;33659;42.672;23.354;2023-04-06T09:09:15;7.07;;;5.73;;
11691;SDS011;33659;42.672;23.354;2023-04-06T09:11:45;6.03;;;4.93;;
11691;SDS011;33659;42.672;23.354;2023-04-06T09:14:12;8.30;;;6.00;;
11691;SDS011;33659;42.672;23.354;2023-04-06T09:16:40;9.63;;;5.87;;
11691;SDS011;33659;42.672;23.354;2023-04-06T09:19:07;8.50;;;6.50;;
11691;SDS011;33659;42.672;23.354;2023-04-06T09:21:34;7.90;;;5.30;;
11691;SDS011;33659;42.672;23.354;2023-04-06T09:24:03;7.63;;;5.83;;
11691;SDS011;33659;42.672;23.354;2023-04-06T09:26:31;5.67;;;5.07;;
11691;SDS011;33659;42.672;23.354;2023-04-06T09:28:59;5.80;;;5.20;;
11691;SDS011;33659;42.672;23.354;2023-04-06T09:31:26;5.40;;;4.90;;
11691;SDS011;33659;42.672;23.354;2023-04-06T09:33:54;7.17;;;6.47;;
11691;SDS011;33659;42.672;23.354;2023-04-06T09:36:29;6.47;;;4.83;;
11691;SDS011;33659;42.672;23.354;2023-04-06T09:38:58;8.63;;;5.80;;
11691;SDS011;33659;42.672;23.354;2023-04-06T09:41:28;10.17;;;6.43;;
11691;SDS011;33659;42.672;23.354;2023-04-06T09:44:03;9.47;;;6.50;;
11691;SDS011;33659;42.672;23.354;2023-04-06T09:46:31;7.83;;;6.00;;
11691;SDS011;33659;42.672;23.354;2023-04-06T09:48:59;8.60;;;6.53;;
11691;SDS011;33659;42.672;23.354;2023-04-06T09:51:26;9.50;;;6.47;;
11691;SDS011;33659;42.672;23.354;2023-04-06T09:53:57;7.53;;;6.07;;
11691;SDS011;33659;42.672;23.354;2023-04-06T09:56:30;8.07;;;5.03;;
11691;SDS011;33659;42.672;23.354;2023-04-06T09:59:02;13.57;;;5.77;;
11691;SDS011;33659;42.672;23.354;2023-04-06T10:01:32;7.07;;;5.27;;
11691;SDS011;33659;42.672;23.354;2023-04-06T10:04:04;9.90;;;5.57;;
11691;SDS011;33659;42.672;23.354;2023-04-06T10:06:39;6.90;;;5.20;;
11691;SDS011;33659;42.672;23.354;2023-04-06T10:09:07;7.03;;;5.17;;
11691;SDS011;33659;42.672;23.354;2023-04-06T10:11:35;7.53;;;5.60;;
11691;SDS011;33659;42.672;23.354;2023-04-06T10:14:03;6.97;;;5.63;;
11691;SDS011;33659;42.672;23.354;2023-04-06T10:16:30;6.93;;;5.90;;
11691;SDS011;33659;42.672;23.354;2023-04-06T10:18:58;7.07;;;5.87;;
11691;SDS011;33659;42.672;23.354;2023-04-06T10:21:31;7.10;;;5.73;;
11691;SDS011;33659;42.672;23.354;2023-04-06T10:24:01;6.27;;;5.67;;
11691;SDS011;33659;42.672;23.354;2023-04-06T10:26:28;7.27;;;4.73;;
11691;SDS011;33659;42.672;23.354;2023-04-06T10:29:02;8.50;;;5.07;;
11691;SDS011;33659;42.672;23.354;2023-04-06T10:31:29;6.03;;;5.03;;
11691;SDS011;33659;42.672;23.354;2023-04-06T10:33:56;6.10;;;4.87;;
11691;SDS011;33659;42.672;23.354;2023-04-06T10:36:24;5.50;;;4.80;;
11691;SDS011;33659;42.672;23.354;2023-04-06T10:38:56;7.33;;;5.47;;
11691;SDS011;33659;42.672;23.354;2023-04-06T10:41:24;6.93;;;5.43;;
11691;SDS011;33659;42.672;23.354;2023-04-06T10:44:00;8.23;;;5.77;;
11691;SDS011;33659;42.672;23.354;2023-04-06T10:46:27;6.43;;;5.37;;
11691;SDS011;33659;42.672;23.354;2023-04-06T10:48:55;6.57;;;5.43;;
11691;SDS011;33659;42.672;23.354;2023-04-06T10:51:24;6.97;;;6.00;;
11691;SDS011;33659;42.672;23.354;2023-04-06T10:53:52;7.73;;;5.30;;
11691;SDS011;33659;42.672;23.354;2023-04-06T10:56:21;6.20;;;5.53;;
11691;SDS011;33659;42.672;23.354;2023-04-06T10:58:51;6.47;;;5.53;;
11691;SDS011;33659;42.672;23.354;2023-04-06T11:01:22;5.70;;;4.80;;
11691;SDS011;33659;42.672;23.354;2023-04-06T11:04:08;7.37;;;5.30;;
11691;SDS011;33659;42.672;23.354;2023-04-06T11:06:38;9.30;;;5.53;;
11691;SDS011;33659;42.672;23.354;2023-04-06T11:09:05;10.77;;;6.40;;
11691;SDS011;33659;42.672;23.354;2023-04-06T11:11:32;8.53;;;5.70;;
11691;SDS011;33659;42.672;23.354;2023-04-06T11:14:05;6.53;;;5.83;;
11691;SDS011;33659;42.672;23.354;2023-04-06T11:16:33;12.37;;;5.63;;
11691;SDS011;33659;42.672;23.354;2023-04-06T11:19:00;5.90;;;5.03;;
11691;SDS011;33659;42.672;23.354;2023-04-06T11:21:32;6.03;;;5.13;;
11691;SDS011;33659;42.672;23.354;2023-04-06T11:24:06;5.43;;;4.93;;
11691;SDS011;33659;42.672;23.354;2023-04-06T11:26:37;7.33;;;6.07;;
11691;SDS011;33659;42.672;23.354;2023-04-06T11:29:05;7.03;;;5.47;;
11691;SDS011;33659;42.672;23.354;2023-04-06T11:31:38;6.23;;;5.27;;
11691;SDS011;33659;42.672;23.354;2023-04-06T11:34:09;7.40;;;5.60;;
11691;SDS011;33659;42.672;23.354;2023-04-06T11:36:39;6.23;;;4.20;;
11691;SDS011;33659;42.672;23.354;2023-04-06T11:39:07;5.70;;;4.97;;
11691;SDS011;33659;42.672;23.354;2023-04-06T11:41:35;5.23;;;4.73;;
11691;SDS011;33659;42.672;23.354;2023-04-06T11:44:02;6.00;;;5.30;;
11691;SDS011;33659;42.672;23.354;2023-04-06T11:46:29;7.17;;;6.17;;
11691;SDS011;33659;42.672;23.354;2023-04-06T11:48:59;11.10;;;5.53;;
11691;SDS011;33659;42.672;23.354;2023-04-06T11:51:26;6.27;;;5.03;;
11691;SDS011;33659;42.672;23.354;2023-04-06T11:53:53;5.47;;;4.97;;
11691;SDS011;33659;42.672;23.354;2023-04-06T11:56:23;7.27;;;4.47;;
11691;SDS011;33659;42.672;23.354;2023-04-06T11:58:51;6.40;;;4.97;;
11691;SDS011;33659;42.672;23.354;2023-04-06T12:01:18;8.47;;;5.43;;
11691;SDS011;33659;42.672;23.354;2023-04-06T12:03:45;8.40;;;5.97;;
11691;SDS011;33659;42.672;23.354;2023-04-06T12:06:13;6.97;;;5.70;;
11691;SDS011;33659;42.672;23.354;2023-04-06T12:08:40;9.37;;;5.80;;
11691;SDS011;33659;42.672;23.354;2023-04-06T12:11:07;9.27;;;5.73;;
11691;SDS011;33659;42.672;23.354;2023-04-06T12:13:34;8.00;;;5.57;;
11691;SDS011;33659;42.672;23.354;2023-04-06T12:16:00;10.80;;;6.10;;
11691;SDS011;33659;42.672;23.354;2023-04-06T12:18:27;5.50;;;4.63;;
11691;SDS011;33659;42.672;23.354;2023-04-06T12:20:54;8.53;;;5.30;;
11691;SDS011;33659;42.672;23.354;2023-04-06T12:23:22;9.33;;;5.50;;
11691;SDS011;33659;42.672;23.354;2023-04-06T12:25:48;6.77;;;5.50;;
11691;SDS011;33659;42.672;23.354;2023-04-06T12:28:15;6.43;;;5.20;;
11691;SDS011;33659;42.672;23.354;2023-04-06T12:30:42;5.87;;;4.83;;
11691;SDS011;33659;42.672;23.354;2023-04-06T12:33:09;7.53;;;5.73;;
11691;SDS011;33659;42.672;23.354;2023-04-06T12:35:36;4.73;;;4.33;;
11691;SDS011;33659;42.672;23.354;2023-04-06T12:38:03;8.50;;;5.07;;
11691;SDS011;33659;42.672;23.354;2023-04-06T12:40:31;6.23;;;5.40;;
11691;SDS011;33659;42.672;23.354;2023-04-06T12:43:02;6.93;;;5.53;;
11691;SDS011;33659;42.672;23.354;2023-04-06T12:45:30;8.37;;;5.00;;
11691;SDS011;33659;42.672;23.354;2023-04-06T12:47:58;7.43;;;5.40;;
11691;SDS011;33659;42.672;23.354;2023-04-06T12:50:24;6.53;;;4.70;;
11691;SDS011;33659;42.672;23.354;2023-04-06T12:52:51;6.07;;;4.73;;
11691;SDS011;33659;42.672;23.354;2023-04-06T12:55:18;6.83;;;5.03;;
11691;SDS011;33659;42.672;23.354;2023-04-06T12:57:47;6.97;;;4.90;;
11691;SDS011;33659;42.672;23.354;2023-04-06T13:00:14;7.27;;;4.83;;
11691;SDS011;33659;42.672;23.354;2023-04-06T13:02:41;5.70;;;5.20;;
11691;SDS011;33659;42.672;23.354;2023-04-06T13:05:11;7.70;;;4.77;;
11691;SDS011;33659;42.672;23.354;2023-04-06T13:07:39;6.33;;;5.40;;
11691;SDS011;33659;42.672;23.354;2023-04-06T13:10:06;5.80;;;4.67;;
11691;SDS011;33659;42.672;23.354;2023-04-06T13:12:33;5.47;;;4.97;;
11691;SDS011;33659;42.672;23.354;2023-04-06T13:15:01;5.67;;;5.07;;
11691;SDS011;33659;42.672;23.354;2023-04-06T13:17:29;6.27;;;5.50;;
11691;SDS011;33659;42.672;23.354;2023-04-06T13:19:55;5.57;;;4.90;;
11691;SDS011;33659;42.672;23.354;2023-04-06T13:22:22;8.13;;;5.50;;
11691;SDS011;33659;42.672;23.354;2023-04-06T13:24:49;7.00;;;5.73;;
11691;SDS011;33659;42.672;23.354;2023-04-06T13:27:16;6.70;;;5.30;;
11691;SDS011;33659;42.672;23.354;2023-04-06T13:29:43;8.87;;;5.97;;
11691;SDS011;33659;42.672;23.354;2023-04-06T13:32:11;7.70;;;5.93;;
11691;SDS011;33659;42.672;23.354;2023-04-06T13:34:38;6.40;;;5.50;;
11691;SDS011;33659;42.672;23.354;2023-04-06T13:37:05;6.40;;;5.17;;
11691;SDS011;33659;42.672;23.354;2023-04-06T13:39:32;6.20;;;5.60;;
11691;SDS011;33659;42.672;23.354;2023-04-06T13:41:59;7.10;;;5.73;;
11691;SDS011;33659;42.672;23.354;2023-04-06T13:44:27;7.43;;;5.57;;
11691;SDS011;33659;42.672;23.354;2023-04-06T13:46:54;4.73;;;4.07;;
11691;SDS011;33659;42.672;23.354;2023-04-06T13:49:22;7.00;;;4.80;;
11691;SDS011;33659;42.672;23.354;2023-04-06T13:51:49;5.10;;;4.60;;
11691;SDS011;33659;42.672;23.354;2023-04-06T13:54:16;7.77;;;4.50;;
11691;SDS011;33659;42.672;23.354;2023-04-06T13:56:43;5.03;;;4.53;;
11691;SDS011;33659;42.672;23.354;2023-04-06T13:59:09;5.37;;;4.57;;
11691;SDS011;33659;42.672;23.354;2023-04-06T14:01:36;6.07;;;4.70;;
11691;SDS011;33659;42.672;23.354;2023-04-06T14:04:03;6.70;;;5.17;;
11691;SDS011;33659;42.672;23.354;2023-04-06T14:06:31;6.67;;;5.23;;
11691;SDS011;33659;42.672;23.354;2023-04-06T14:08:58;6.60;;;4.90;;
11691;SDS011;33659;42.672;23.354;2023-04-06T14:11:25;7.57;;;5.13;;
11691;SDS011;33659;42.672;23.354;2023-04-06T14:13:52;5.67;;;4.67;;
11691;SDS011;33659;42.672;23.354;2023-04-06T14:16:18;4.90;;;4.40;;
11691;SDS011;33659;42.672;23.354;2023-04-06T14:18:46;5.63;;;4.90;;
11691;SDS011;33659;42.672;23.354;2023-04-06T14:21:13;6.20;;;5.07;;
11691;SDS011;33659;42.672;23.354;2023-04-06T14:23:41;4.80;;;4.30;;
11691;SDS011;33659;42.672;23.354;2023-04-06T14:26:08;6.87;;;4.73;;
11691;SDS011;33659;42.672;23.354;2023-04-06T14:28:35;8.30;;;5.33;;
11691;SDS011;33659;42.672;23.354;2023-04-06T14:31:08;8.33;;;5.53;;
11691;SDS011;33659;42.672;23.354;2023-04-06T14:33:36;7.87;;;4.93;;